Time;durP1;ratioP1;P1;durP2;ratioP2;P2;SDS_P1;SDS_P2;PMS_P1;PMS_P2;Temp;Humidity;BMP_temperature;BMP_pressure;BME280_temperature;BME280_humidity;BME280_pressure;Samples;Min_cycle;Max_cycle;Signal;HPM_P1;HPM_P2
2024/03/16 00:01:29;;;;;;;106.20;46.50;;;;;;;5.82;100.00;101295.07;106193;1250;73928;-75
2024/03/16 00:03:56;;;;;;;105.90;45.80;;;;;;;5.88;100.00;101294.39;106109;1253;63843;-74
2024/03/16 00:06:24;;;;;;;98.20;43.40;;;;;;;5.92;100.00;101293.57;106122;1251;72479;-76
2024/03/16 00:08:51;;;;;;;98.20;44.30;;;;;;;5.94;100.00;101295.80;106119;1253;61825;-75
2024/03/16 00:11:18;;;;;;;97.30;46.20;;;;;;;5.91;100.00;101290.48;106107;1253;60309;-76
2024/03/16 00:13:46;;;;;;;106.30;46.60;;;;;;;5.89;100.00;101296.43;106092;1253;73816;-75
2024/03/16 00:16:13;;;;;;;108.70;46.60;;;;;;;5.88;100.00;101292.84;106035;1253;62572;-75
2024/03/16 00:18:40;;;;;;;103.10;44.50;;;;;;;5.85;100.00;101294.11;106099;1251;71164;-75
2024/03/16 00:21:07;;;;;;;107.20;46.10;;;;;;;5.84;100.00;101293.66;106098;1254;61675;-73
2024/03/16 00:23:35;;;;;;;119.40;46.80;;;;;;;5.83;100.00;101296.80;106149;1250;60545;-73
2024/03/16 00:26:02;;;;;;;105.00;44.30;;;;;;;5.84;100.00;101297.30;106128;1249;72546;-75
2024/03/16 00:28:29;;;;;;;98.60;46.60;;;;;;;5.82;100.00;101297.34;106197;1253;62354;-75
2024/03/16 00:30:56;;;;;;;95.00;42.70;;;;;;;5.77;100.00;101296.77;106079;1253;70843;-74
2024/03/16 00:33:23;;;;;;;97.80;45.20;;;;;;;5.74;100.00;101294.27;106103;1251;62245;-74
2024/03/16 00:35:50;;;;;;;94.20;46.50;;;;;;;5.77;100.00;101292.81;106106;1254;61135;-77
2024/03/16 00:38:18;;;;;;;92.50;41.70;;;;;;;5.80;100.00;101291.99;106160;1253;74796;-75
2024/03/16 00:40:45;;;;;;;111.90;46.30;;;;;;;5.81;100.00;101292.84;106109;1251;62425;-73
2024/03/16 00:43:17;;;;;;;110.90;42.90;;;;;;;5.82;100.00;101290.58;106121;1251;72609;-75
2024/03/16 00:45:45;;;;;;;109.70;47.20;;;;;;;5.83;100.00;101292.47;106099;1252;61202;-75
2024/03/16 00:48:12;;;;;;;101.80;45.00;;;;;;;5.81;100.00;101289.23;106076;1252;61096;-76
2024/03/16 00:50:39;;;;;;;103.90;46.40;;;;;;;5.83;100.00;101290.18;106131;1254;74594;-75
2024/03/16 00:53:08;;;;;;;102.90;46.10;;;;;;;5.88;100.00;101284.68;106124;1249;62287;-73
2024/03/16 00:55:35;;;;;;;115.40;47.00;;;;;;;5.87;100.00;101285.91;106105;1253;71162;-72
2024/03/16 00:58:03;;;;;;;102.80;47.10;;;;;;;5.82;100.00;101286.05;105886;1256;62015;-74
2024/03/16 01:00:31;;;;;;;117.00;49.40;;;;;;;5.77;100.00;101285.52;106094;1250;61561;-73
2024/03/16 01:02:59;;;;;;;103.70;45.20;;;;;;;5.73;100.00;101286.31;106160;1254;74707;-72
2024/03/16 01:05:27;;;;;;;109.10;51.20;;;;;;;5.73;100.00;101285.96;106071;1251;64012;-72
2024/03/16 01:07:55;;;;;;;105.80;47.00;;;;;;;5.71;100.00;101285.86;106150;1250;72634;-74
2024/03/16 01:10:22;;;;;;;97.80;45.40;;;;;;;5.69;100.00;101284.36;106116;1253;61557;-74
2024/03/16 01:12:49;;;;;;;103.20;44.60;;;;;;;5.69;100.00;101283.83;106159;1254;61234;-74
2024/03/16 01:15:16;;;;;;;96.40;44.80;;;;;;;5.72;100.00;101283.23;106196;1251;74697;-74
2024/03/16 01:17:44;;;;;;;95.50;42.50;;;;;;;5.71;100.00;101282.56;106187;1253;62875;-72
2024/03/16 01:20:11;;;;;;;92.10;42.00;;;;;;;5.69;100.00;101284.20;106195;1251;72342;-72
2024/03/16 01:22:38;;;;;;;99.00;43.80;;;;;;;5.68;100.00;101284.58;106331;1253;61974;-72
2024/03/16 01:25:06;;;;;;;96.40;45.00;;;;;;;5.68;100.00;101284.21;106306;1251;61228;-71
2024/03/16 01:27:35;;;;;;;96.90;44.30;;;;;;;5.69;100.00;101285.23;106413;1251;74431;-74
2024/03/16 01:30:03;;;;;;;96.50;45.20;;;;;;;5.72;100.00;101283.06;108477;1252;63894;-72
2024/03/16 01:32:31;;;;;;;110.80;43.10;;;;;;;5.75;100.00;101284.52;109158;1249;71334;-72
2024/03/16 01:34:58;;;;;;;97.20;42.50;;;;;;;5.73;100.00;101283.90;108664;1252;61282;-72
2024/03/16 01:37:25;;;;;;;106.80;46.20;;;;;;;5.69;100.00;101284.36;106550;1253;61199;-71
2024/03/16 01:39:52;;;;;;;101.20;41.70;;;;;;;5.64;100.00;101284.52;106310;1253;75006;-74
2024/03/16 01:42:19;;;;;;;98.10;42.40;;;;;;;5.59;100.00;101281.52;106162;1254;63829;-74
2024/03/16 01:45:02;;;;;;;97.10;41.70;;;;;;;5.55;100.00;101284.40;106168;1251;72586;-75
2024/03/16 01:47:31;;;;;;;90.00;39.80;;;;;;;5.52;100.00;101282.40;106218;1251;62135;-74
2024/03/16 01:49:59;;;;;;;96.90;41.20;;;;;;;5.50;100.00;101285.94;106155;1251;61269;-73
2024/03/16 01:52:26;;;;;;;100.70;42.80;;;;;;;5.47;100.00;101285.33;106122;1251;74537;-74
2024/03/16 01:54:53;;;;;;;109.00;45.50;;;;;;;5.46;100.00;101281.70;106350;1253;63880;-73
2024/03/16 01:57:21;;;;;;;109.70;46.40;;;;;;;5.46;100.00;101285.00;106484;1253;71763;-74
2024/03/16 01:59:48;;;;;;;108.30;43.90;;;;;;;5.53;100.00;101282.40;106269;1253;62009;-74
2024/03/16 02:02:36;;;;;;;106.00;45.90;;;;;;;5.63;100.00;101285.55;106575;1254;61173;-74
2024/03/16 02:05:07;;;;;;;95.50;41.00;;;;;;;5.77;100.00;101286.38;109695;1250;74681;-73
2024/03/16 02:07:40;;;;;;;112.00;42.80;;;;;;;5.85;100.00;101286.83;108227;1249;62610;-73
2024/03/16 02:10:08;;;;;;;98.50;42.00;;;;;;;5.92;100.00;101291.31;106235;1253;71435;-74
2024/03/16 02:12:35;;;;;;;114.90;43.90;;;;;;;6.01;100.00;101289.17;106172;1250;61211;-73
2024/03/16 02:15:02;;;;;;;119.30;46.30;;;;;;;6.08;100.00;101290.88;106151;1250;61333;-75
2024/03/16 02:17:30;;;;;;;114.70;42.30;;;;;;;6.12;100.00;101289.33;106200;1251;74583;-73
2024/03/16 02:19:57;;;;;;;129.00;45.60;;;;;;;6.17;100.00;101289.73;106143;1251;63657;-76
2024/03/16 02:22:24;;;;;;;108.60;43.30;;;;;;;6.17;100.00;101293.02;106156;1250;72524;-75
2024/03/16 02:24:51;;;;;;;114.80;42.60;;;;;;;6.15;100.00;101292.04;106121;1254;61312;-76
2024/03/16 02:27:17;;;;;;;121.40;42.90;;;;;;;6.11;100.00;101294.44;105940;1256;61195;-75
2024/03/16 02:29:44;;;;;;;112.10;45.10;;;;;;;6.07;100.00;101295.59;106142;1249;74399;-73
2024/03/16 02:32:11;;;;;;;118.70;44.40;;;;;;;6.03;100.00;101295.04;106107;1254;63954;-74
2024/03/16 02:34:38;;;;;;;115.00;42.00;;;;;;;5.94;100.00;101297.70;106144;1250;72637;-74
2024/03/16 02:37:07;;;;;;;127.50;44.30;;;;;;;5.91;100.00;101293.44;106117;1251;61431;-74
2024/03/16 02:39:35;;;;;;;119.70;46.30;;;;;;;5.90;100.00;101294.33;106205;1253;61209;-73
2024/03/16 02:42:03;;;;;;;115.50;43.10;;;;;;;5.90;100.00;101294.67;106112;1249;74537;-74
2024/03/16 02:44:30;;;;;;;120.90;41.80;;;;;;;5.92;100.00;101296.01;106206;1253;62451;-75
2024/03/16 02:46:58;;;;;;;118.00;45.40;;;;;;;5.90;100.00;101297.29;106096;1251;72577;-74
2024/03/16 02:49:28;;;;;;;121.60;44.30;;;;;;;5.86;100.00;101297.57;106119;1253;61932;-75
2024/03/16 02:51:54;;;;;;;125.40;45.30;;;;;;;5.79;100.00;101296.20;106169;1249;61216;-74
2024/03/16 02:54:21;;;;;;;129.70;44.50;;;;;;;5.75;100.00;101293.73;106177;1254;74351;-74
2024/03/16 02:56:49;;;;;;;114.20;41.30;;;;;;;5.74;100.00;101299.84;106113;1252;63783;-75
2024/03/16 02:59:16;;;;;;;121.10;43.60;;;;;;;5.77;100.00;101299.23;106145;1251;72567;-74
2024/03/16 03:01:43;;;;;;;120.50;43.10;;;;;;;5.81;100.00;101295.64;106080;1253;61753;-74
2024/03/16 03:04:10;;;;;;;130.50;45.30;;;;;;;5.80;100.00;101300.70;106107;1250;61217;-75
2024/03/16 03:06:38;;;;;;;137.40;45.30;;;;;;;5.77;100.00;101298.88;106354;1249;73624;-74
2024/03/16 03:09:09;;;;;;;135.20;43.00;;;;;;;5.76;100.00;101300.98;106220;1253;63803;-73
2024/03/16 03:11:37;;;;;;;136.30;42.80;;;;;;;5.78;100.00;101305.08;105974;1251;72466;-76
2024/03/16 03:14:08;;;;;;;120.90;41.90;;;;;;;5.76;100.00;101303.73;106239;1250;61335;-76
2024/03/16 03:16:34;;;;;;;127.50;41.60;;;;;;;5.73;100.00;101300.72;106152;1251;61321;-74
2024/03/16 03:19:02;;;;;;;115.00;42.60;;;;;;;5.72;100.00;101308.03;106126;1253;74626;-75
2024/03/16 03:21:29;;;;;;;123.60;42.40;;;;;;;5.69;100.00;101302.40;106129;1252;63676;-75
2024/03/16 03:23:56;;;;;;;127.80;45.50;;;;;;;5.66;100.00;101306.29;106201;1251;70724;-74
2024/03/16 03:26:23;;;;;;;121.20;42.50;;;;;;;5.68;100.00;101305.20;106241;1253;61890;-76
2024/03/16 03:28:51;;;;;;;106.90;38.00;;;;;;;5.67;100.00;101308.86;106175;1251;61192;-73
2024/03/16 03:31:18;;;;;;;114.70;41.20;;;;;;;5.61;100.00;101308.52;106138;1250;73120;-74
2024/03/16 03:33:45;;;;;;;116.00;41.10;;;;;;;5.52;100.00;101313.98;106157;1253;63884;-73
2024/03/16 03:36:12;;;;;;;113.30;43.20;;;;;;;5.47;100.00;101312.39;106225;1251;71964;-75
2024/03/16 03:38:39;;;;;;;134.90;43.20;;;;;;;5.51;100.00;101314.16;106204;1248;62051;-74
2024/03/16 03:41:07;;;;;;;117.50;42.30;;;;;;;5.58;100.00;101315.21;106177;1250;61109;-74
2024/03/16 03:43:37;;;;;;;116.00;40.00;;;;;;;5.65;100.00;101313.27;106161;1251;73653;-73
2024/03/16 03:46:05;;;;;;;124.10;41.20;;;;;;;5.73;100.00;101313.39;106164;1254;62940;-73
2024/03/16 03:48:41;;;;;;;129.20;44.60;;;;;;;5.81;100.00;101315.23;106171;1251;72547;-73
2024/03/16 03:51:08;;;;;;;114.00;42.50;;;;;;;5.82;100.00;101317.64;106218;1253;61964;-74
2024/03/16 03:53:36;;;;;;;116.70;42.30;;;;;;;5.84;100.00;101317.77;106199;1250;61275;-74
2024/03/16 03:56:03;;;;;;;140.90;44.20;;;;;;;5.86;100.00;101320.14;106106;1250;73698;-75
2024/03/16 03:58:30;;;;;;;113.00;40.80;;;;;;;5.89;100.00;101318.84;106228;1252;63750;-76
2024/03/16 04:00:57;;;;;;;113.40;37.80;;;;;;;5.96;100.00;101322.98;106188;1253;72493;-75
2024/03/16 04:03:24;;;;;;;116.80;38.50;;;;;;;6.00;100.00;101327.38;105915;1256;61808;-76
2024/03/16 04:05:53;;;;;;;114.30;39.10;;;;;;;6.03;100.00;101329.91;106288;1251;61330;-75
2024/03/16 04:08:20;;;;;;;127.70;39.30;;;;;;;6.05;100.00;101328.63;106197;1253;74579;-75
2024/03/16 04:10:47;;;;;;;135.30;41.10;;;;;;;6.02;100.00;101329.77;106199;1253;63799;-75
2024/03/16 04:13:14;;;;;;;125.40;41.20;;;;;;;6.03;100.00;101331.46;106175;1251;72520;-74
2024/03/16 04:15:42;;;;;;;137.70;44.60;;;;;;;6.07;100.00;101330.67;106223;1250;61292;-75
2024/03/16 04:18:10;;;;;;;129.20;39.90;;;;;;;6.10;100.00;101331.77;106259;1251;61250;-74
2024/03/16 04:20:38;;;;;;;130.70;40.20;;;;;;;6.14;100.00;101327.31;106213;1251;74669;-75
2024/03/16 04:23:07;;;;;;;111.40;41.00;;;;;;;6.17;100.00;101330.86;106229;1253;63964;-72
2024/03/16 04:25:34;;;;;;;133.20;41.40;;;;;;;6.15;100.00;101329.89;106154;1251;72711;-74
2024/03/16 04:28:02;;;;;;;147.20;41.60;;;;;;;6.06;100.00;101331.39;106207;1249;61818;-75
2024/03/16 04:30:30;;;;;;;117.10;40.60;;;;;;;5.96;100.00;101334.61;106205;1250;61249;-76
2024/03/16 04:32:57;;;;;;;118.50;41.60;;;;;;;5.94;100.00;101335.53;106209;1249;74668;-74
2024/03/16 04:35:24;;;;;;;130.00;41.60;;;;;;;5.95;100.00;101335.00;106123;1253;63763;-76
2024/03/16 04:37:52;;;;;;;139.20;41.20;;;;;;;5.94;100.00;101335.02;106185;1251;72646;-74
2024/03/16 04:40:20;;;;;;;135.50;43.00;;;;;;;5.94;100.00;101337.45;106283;1254;61237;-75
2024/03/16 04:42:47;;;;;;;131.80;44.00;;;;;;;5.95;100.00;101338.83;106210;1251;61234;-75
2024/03/16 04:45:14;;;;;;;139.90;41.70;;;;;;;5.97;100.00;101342.40;106119;1250;74641;-76
2024/03/16 04:47:41;;;;;;;130.80;41.00;;;;;;;5.95;100.00;101343.52;106139;1254;62929;-78
2024/03/16 04:50:11;;;;;;;122.00;40.20;;;;;;;5.93;100.00;101346.48;106149;1250;71577;-74
2024/03/16 04:52:38;;;;;;;130.70;39.20;;;;;;;5.95;100.00;101343.51;106201;1253;62956;-74
2024/03/16 04:55:05;;;;;;;127.30;41.60;;;;;;;5.94;100.00;101343.00;106198;1251;61336;-75
2024/03/16 04:57:32;;;;;;;128.00;42.80;;;;;;;5.93;100.00;101350.63;106197;1251;74531;-72
2024/03/16 04:59:59;;;;;;;127.00;42.90;;;;;;;5.95;100.00;101349.75;106196;1253;63843;-74
2024/03/16 05:02:26;;;;;;;142.90;44.40;;;;;;;6.01;100.00;101352.69;106140;1251;72688;-75
2024/03/16 05:04:53;;;;;;;140.40;41.20;;;;;;;6.07;100.00;101354.61;106072;1253;61829;-74
2024/03/16 05:07:24;;;;;;;143.80;40.20;;;;;;;6.11;100.00;101360.05;106205;1250;61195;-75
2024/03/16 05:09:51;;;;;;;140.40;40.00;;;;;;;6.13;100.00;101361.73;106166;1253;74458;-75
2024/03/16 05:12:19;;;;;;;142.00;40.50;;;;;;;6.17;100.00;101363.49;105934;1251;63898;-74
2024/03/16 05:14:46;;;;;;;127.60;43.80;;;;;;;6.24;100.00;101368.17;106175;1251;71947;-74
2024/03/16 05:17:13;;;;;;;132.60;40.40;;;;;;;6.31;100.00;101371.60;106202;1251;61233;-75
2024/03/16 05:19:40;;;;;;;144.50;43.80;;;;;;;6.35;100.00;101378.44;106242;1251;61218;-75
2024/03/16 05:22:07;;;;;;;142.40;38.50;;;;;;;6.40;100.00;101379.85;106190;1251;74608;-73
2024/03/16 05:24:35;;;;;;;135.70;39.40;;;;;;;6.44;100.00;101378.84;106246;1254;63719;-75
2024/03/16 05:27:02;;;;;;;126.40;39.40;;;;;;;6.48;100.00;101380.99;106167;1251;72989;-75
2024/03/16 05:29:30;;;;;;;142.70;39.40;;;;;;;6.47;100.00;101385.02;106226;1254;61224;-75
2024/03/16 05:32:01;;;;;;;124.70;41.00;;;;;;;6.38;100.00;101384.77;106171;1249;61247;-75
2024/03/16 05:34:28;;;;;;;131.40;45.40;;;;;;;6.27;100.00;101385.95;106193;1249;74567;-75
2024/03/16 05:36:55;;;;;;;133.90;41.30;;;;;;;6.18;100.00;101384.50;106201;1254;64190;-73
2024/03/16 05:39:23;;;;;;;131.00;40.40;;;;;;;6.11;100.00;101383.98;106122;1254;71297;-73
2024/03/16 05:41:50;;;;;;;157.70;41.00;;;;;;;6.06;100.00;101386.56;106231;1250;61975;-78
2024/03/16 05:44:17;;;;;;;143.80;42.80;;;;;;;6.02;100.00;101391.88;105935;1250;61346;-75
2024/03/16 05:46:43;;;;;;;143.00;41.10;;;;;;;6.00;100.00;101395.23;106117;1254;74768;-76
2024/03/16 05:49:11;;;;;;;141.10;40.90;;;;;;;6.06;100.00;101394.91;106200;1251;63957;-75
2024/03/16 05:51:37;;;;;;;140.30;38.80;;;;;;;6.14;100.00;101396.73;106158;1253;71182;-74
2024/03/16 05:54:04;;;;;;;153.10;42.50;;;;;;;6.19;100.00;101398.88;106206;1251;61129;-77
2024/03/16 05:56:32;;;;;;;153.30;45.00;;;;;;;6.18;100.00;101401.67;106209;1249;61316;-75
2024/03/16 05:58:59;;;;;;;141.50;41.10;;;;;;;6.18;100.00;101403.59;106185;1250;73218;-76
2024/03/16 06:01:26;;;;;;;157.20;44.40;;;;;;;6.20;100.00;101402.48;106184;1250;62226;-76
2024/03/16 06:03:53;;;;;;;119.40;38.10;;;;;;;6.24;100.00;101404.79;106179;1251;72695;-76
2024/03/16 06:06:19;;;;;;;149.80;42.30;;;;;;;6.25;100.00;101402.52;106133;1254;61259;-76
2024/03/16 06:08:46;;;;;;;129.50;40.00;;;;;;;6.26;100.00;101399.89;106144;1253;61214;-74
2024/03/16 06:11:14;;;;;;;121.20;40.00;;;;;;;6.29;100.00;101401.20;106195;1250;74573;-76
2024/03/16 06:13:41;;;;;;;129.00;37.50;;;;;;;6.29;100.00;101406.21;106203;1251;62415;-76
2024/03/16 06:16:08;;;;;;;129.40;37.40;;;;;;;6.29;100.00;101408.66;106178;1251;72549;-74
2024/03/16 06:18:35;;;;;;;116.90;38.80;;;;;;;6.30;100.00;101410.03;106189;1250;63032;-76
2024/03/16 06:21:04;;;;;;;122.50;42.00;;;;;;;6.29;100.00;101410.91;106196;1253;61132;-76
2024/03/16 06:23:32;;;;;;;116.20;38.80;;;;;;;6.29;100.00;101411.77;106178;1253;74601;-74
2024/03/16 06:26:03;;;;;;;119.30;41.70;;;;;;;6.29;100.00;101409.36;106116;1253;64359;-75
2024/03/16 06:28:33;;;;;;;112.40;38.30;;;;;;;6.28;100.00;101409.89;106138;1251;72868;-74
2024/03/16 06:31:07;;;;;;;125.40;40.00;;;;;;;6.26;100.00;101414.66;106245;1253;61689;-74
2024/03/16 06:33:34;;;;;;;97.90;37.00;;;;;;;6.26;100.00;101413.95;106178;1251;61304;-74
2024/03/16 06:36:01;;;;;;;97.90;37.30;;;;;;;6.26;100.00;101417.59;106132;1251;74520;-74
2024/03/16 06:38:31;;;;;;;122.90;38.30;;;;;;;6.30;100.00;101412.79;106225;1254;63810;-74
2024/03/16 06:40:58;;;;;;;106.70;37.20;;;;;;;6.33;100.00;101415.13;106133;1251;72651;-75
2024/03/16 06:43:25;;;;;;;100.80;36.80;;;;;;;6.34;100.00;101417.88;106159;1253;61086;-75
2024/03/16 06:45:52;;;;;;;98.00;40.10;;;;;;;6.35;100.00;101422.00;106194;1253;61139;-74
2024/03/16 06:48:19;;;;;;;94.00;39.10;;;;;;;6.39;100.00;101422.41;106185;1250;74675;-77
2024/03/16 06:50:49;;;;;;;90.60;36.40;;;;;;;6.46;100.00;101420.98;106250;1254;63767;-75
2024/03/16 06:53:16;;;;;;;90.60;38.40;;;;;;;6.50;100.00;101418.99;106228;1251;72524;-75
2024/03/16 06:55:54;;;;;;;97.80;36.80;;;;;;;6.49;100.00;101417.79;106298;1251;61925;-74
2024/03/16 06:58:21;;;;;;;101.00;39.30;;;;;;;6.52;100.00;101420.47;106160;1251;61256;-75
2024/03/16 07:00:48;;;;;;;111.00;39.70;;;;;;;6.58;100.00;101423.04;105889;1250;74671;-73
2024/03/16 07:03:16;;;;;;;107.40;40.00;;;;;;;6.60;100.00;101421.42;106218;1253;63907;-74
2024/03/16 07:05:43;;;;;;;88.30;36.50;;;;;;;6.67;100.00;101421.05;106191;1254;72684;-74
2024/03/16 07:08:12;;;;;;;96.20;35.90;;;;;;;6.72;100.00;101427.33;105911;1249;61243;-75
2024/03/16 07:10:40;;;;;;;93.90;37.10;;;;;;;6.75;100.00;101426.89;106165;1249;61411;-76
2024/03/16 07:13:08;;;;;;;84.90;34.80;;;;;;;6.79;100.00;101424.51;106203;1252;74035;-74
2024/03/16 07:15:35;;;;;;;88.50;34.30;;;;;;;6.89;100.00;101420.71;106150;1254;63927;-75
2024/03/16 07:18:03;;;;;;;91.60;35.60;;;;;;;7.01;100.00;101420.00;106068;1251;71492;-75
2024/03/16 07:20:30;;;;;;;101.60;39.70;;;;;;;7.04;100.00;101421.42;106173;1254;61339;-76
2024/03/16 07:22:57;;;;;;;98.40;36.90;;;;;;;7.09;100.00;101416.08;106175;1251;61313;-75
2024/03/16 07:25:25;;;;;;;93.80;37.30;;;;;;;7.11;100.00;101420.39;106271;1251;74997;-74
2024/03/16 07:27:52;;;;;;;101.20;39.80;;;;;;;7.13;100.00;101419.61;106192;1250;62551;-75
2024/03/16 07:30:19;;;;;;;94.40;36.20;;;;;;;7.19;100.00;101418.02;106251;1252;73210;-75
2024/03/16 07:32:49;;;;;;;98.10;34.50;;;;;;;7.26;100.00;101421.77;106245;1251;62322;-75
2024/03/16 07:35:16;;;;;;;92.80;36.50;;;;;;;7.36;100.00;101420.40;106313;1254;61260;-75
2024/03/16 07:37:44;;;;;;;90.50;34.30;;;;;;;7.47;100.00;101422.64;106229;1253;73645;-75
2024/03/16 07:40:14;;;;;;;95.10;35.80;;;;;;;7.58;100.00;101421.90;106336;1253;63818;-74
2024/03/16 07:42:42;;;;;;;101.40;37.90;;;;;;;7.69;100.00;101418.58;106545;1251;71793;-76
2024/03/16 07:45:10;;;;;;;82.30;34.80;;;;;;;7.79;100.00;101417.71;106181;1251;61316;-76
2024/03/16 07:47:37;;;;;;;96.70;37.80;;;;;;;7.85;100.00;101415.23;106309;1254;61231;-73
2024/03/16 07:50:05;;;;;;;104.50;38.90;;;;;;;7.86;100.00;101418.84;107849;1250;74423;-74
2024/03/16 07:52:34;;;;;;;87.60;36.30;;;;;;;7.85;100.00;101417.85;106865;1256;63990;-75
2024/03/16 07:55:01;;;;;;;97.30;36.50;;;;;;;7.84;100.00;101420.30;106092;1251;72899;-73
2024/03/16 07:57:28;;;;;;;78.40;35.70;;;;;;;7.86;100.00;101417.98;106244;1253;63029;-75
2024/03/16 07:59:55;;;;;;;69.10;32.70;;;;;;;7.91;100.00;101418.33;106225;1251;61486;-74
2024/03/16 08:02:22;;;;;;;73.30;32.50;;;;;;;7.99;100.00;101419.95;105931;1256;73584;-75
2024/03/16 08:04:50;;;;;;;75.90;33.10;;;;;;;8.11;100.00;101422.27;105911;1254;63780;-74
2024/03/16 08:07:18;;;;;;;77.50;31.20;;;;;;;8.24;100.00;101418.99;105887;1251;73872;-74
2024/03/16 08:09:44;;;;;;;70.10;31.10;;;;;;;8.38;100.00;101416.59;106171;1253;61128;-74
2024/03/16 08:12:11;;;;;;;67.00;29.90;;;;;;;8.44;100.00;101415.00;106144;1251;61240;-75
2024/03/16 08:14:38;;;;;;;59.70;31.20;;;;;;;8.51;100.00;101415.41;106181;1251;74700;-75
2024/03/16 08:17:05;;;;;;;66.20;30.90;;;;;;;8.55;100.00;101417.20;106169;1253;64600;-74
2024/03/16 08:19:32;;;;;;;69.50;31.80;;;;;;;8.54;100.00;101417.56;106216;1251;72842;-74
2024/03/16 08:21:59;;;;;;;60.80;29.00;;;;;;;8.48;100.00;101417.45;106114;1253;63124;-75
2024/03/16 08:24:27;;;;;;;73.40;31.20;;;;;;;8.48;100.00;101417.45;106234;1249;61211;-75
2024/03/16 08:26:54;;;;;;;64.10;30.30;;;;;;;8.51;100.00;101415.77;106195;1252;74846;-75
2024/03/16 08:29:24;;;;;;;67.40;32.10;;;;;;;8.58;100.00;101419.14;106201;1253;65134;-77
2024/03/16 08:31:51;;;;;;;69.40;28.70;;;;;;;8.68;100.00;101418.44;106214;1249;72784;-76
2024/03/16 08:34:18;;;;;;;61.30;31.10;;;;;;;8.75;100.00;101417.98;106185;1253;61320;-75
2024/03/16 08:36:45;;;;;;;86.30;37.00;;;;;;;8.73;100.00;101418.20;105971;1250;261748;-76
2024/03/16 08:40:11;;;;;;;71.30;34.60;;;;;;;8.72;100.00;101415.98;102780;1291;601196;-74
2024/03/16 08:42:43;;;;;;;59.10;32.30;;;;;;;8.65;100.00;101416.43;104931;1267;60418;-77
2024/03/16 08:45:10;;;;;;;65.10;33.70;;;;;;;8.55;100.00;101416.14;104874;1265;59958;-74
2024/03/16 08:47:41;;;;;;;73.40;35.10;;;;;;;8.47;100.00;101412.42;104862;1270;72582;-77
2024/03/16 08:50:09;;;;;;;65.30;32.40;;;;;;;8.43;100.00;101417.66;104895;1269;63315;-76
2024/03/16 08:52:37;;;;;;;59.10;31.70;;;;;;;8.41;100.00;101417.37;104771;1273;200466;-75
2024/03/16 08:55:05;;;;;;;84.90;33.90;;;;;;;8.37;100.00;101415.23;105149;1277;62651;-76
2024/03/16 08:57:33;;;;;;;70.30;32.10;;;;;;;8.30;100.00;101416.36;105131;1264;60078;-74
2024/03/16 09:00:04;;;;;;;74.80;34.00;;;;;;;8.24;100.00;101413.09;105062;1269;72509;-77
2024/03/16 09:02:31;;;;;;;65.50;33.60;;;;;;;8.23;100.00;101415.91;105046;1269;62360;-76
2024/03/16 09:04:59;;;;;;;69.90;32.00;;;;;;;8.22;100.00;101414.91;104837;1264;72683;-78
2024/03/16 09:07:28;;;;;;;66.50;31.70;;;;;;;8.19;100.00;101415.56;104781;1266;60951;-75
2024/03/16 09:09:57;;;;;;;64.70;33.10;;;;;;;8.17;100.00;101415.44;104940;1264;60446;-76
2024/03/16 09:12:25;;;;;;;55.60;29.10;;;;;;;8.14;100.00;101413.98;104889;1263;73977;-74
2024/03/16 09:14:53;;;;;;;75.30;34.40;;;;;;;8.08;100.00;101410.36;104914;1270;63842;-76
2024/03/16 09:17:20;;;;;;;71.80;35.80;;;;;;;8.04;100.00;101411.76;104947;1264;72845;-77
2024/03/16 09:19:48;;;;;;;70.00;35.00;;;;;;;8.02;100.00;101406.59;105017;1267;60530;-76
2024/03/16 09:22:16;;;;;;;86.60;37.90;;;;;;;8.03;100.00;101406.71;105028;1261;60499;-77
2024/03/16 09:24:44;;;;;;;69.50;37.60;;;;;;;8.03;100.00;101405.86;105040;1261;72633;-77
2024/03/16 09:27:12;;;;;;;69.20;38.30;;;;;;;8.06;100.00;101408.89;105313;1257;63681;-78
2024/03/16 09:29:43;;;;;;;73.10;39.30;;;;;;;8.13;100.00;101406.73;105261;1264;71701;-76
2024/03/16 09:32:10;;;;;;;69.10;34.80;;;;;;;8.23;100.00;101406.52;105274;1264;61919;-77
2024/03/16 09:34:39;;;;;;;76.10;38.10;;;;;;;8.35;100.00;101401.21;105664;1253;60816;-75
2024/03/16 09:37:06;;;;;;;67.20;34.00;;;;;;;8.44;100.00;101400.02;105700;1260;76232;-76
2024/03/16 09:39:34;;;;;;;76.40;36.00;;;;;;;8.47;100.00;101396.37;105706;1260;63639;-76
2024/03/16 09:42:02;;;;;;;85.70;41.00;;;;;;;8.50;100.00;101401.16;105735;1259;73567;-77
2024/03/16 09:44:30;;;;;;;83.20;39.20;;;;;;;8.55;100.00;101399.24;106024;1260;60339;-75
2024/03/16 09:46:59;;;;;;;78.60;38.50;;;;;;;8.56;100.00;101400.05;106502;1260;60770;-75
2024/03/16 09:49:26;;;;;;;74.00;38.30;;;;;;;8.49;100.00;101396.49;105502;1254;74564;-75
2024/03/16 09:51:54;;;;;;;77.30;36.10;;;;;;;8.46;100.00;101395.04;105719;1254;65546;-77
2024/03/16 09:54:22;;;;;;;77.40;36.70;;;;;;;8.51;100.00;101398.52;105591;1257;73670;-78
2024/03/16 09:56:49;;;;;;;82.80;37.60;;;;;;;8.57;100.00;101397.58;105506;1254;61757;-76
2024/03/16 09:59:19;;;;;;;79.30;37.30;;;;;;;8.59;100.00;101400.80;105638;1254;60810;-76
2024/03/16 10:01:58;;;;;;;86.90;39.60;;;;;;;8.60;100.00;101399.23;105711;1254;74381;-75
2024/03/16 10:04:27;;;;;;;76.00;40.60;;;;;;;8.63;100.00;101398.40;105898;1254;62917;-76
2024/03/16 10:06:55;;;;;;;79.70;36.10;;;;;;;8.66;100.00;101399.84;105687;1257;74429;-77
2024/03/16 10:09:23;;;;;;;68.30;36.10;;;;;;;8.61;100.00;101398.12;105532;1254;60514;-75
2024/03/16 10:11:50;;;;;;;72.60;37.00;;;;;;;8.55;100.00;101397.48;105655;1254;60474;-76
2024/03/16 10:14:21;;;;;;;84.00;39.40;;;;;;;8.56;100.00;101396.23;105717;1254;73544;-77
2024/03/16 10:16:52;;;;;;;75.30;39.90;;;;;;;8.60;100.00;101397.98;105664;1259;63437;-77
2024/03/16 10:19:20;;;;;;;71.00;38.20;;;;;;;8.65;100.00;101399.17;105636;1260;74787;-76
2024/03/16 10:21:53;;;;;;;81.60;35.00;;;;;;;8.68;100.00;101395.92;105641;1254;61547;-78
2024/03/16 10:24:20;;;;;;;75.60;36.90;;;;;;;8.72;100.00;101394.38;105637;1259;61010;-76
2024/03/16 10:26:48;;;;;;;65.70;32.50;;;;;;;8.78;100.00;101393.43;105425;1254;73699;-75
2024/03/16 10:29:19;;;;;;;64.90;35.60;;;;;;;8.82;100.00;101392.05;105627;1260;63921;-74
2024/03/16 10:31:49;;;;;;;74.00;36.90;;;;;;;8.83;100.00;101389.92;105716;1259;75474;-75
2024/03/16 10:34:22;;;;;;;74.40;37.70;;;;;;;8.86;100.00;101391.41;107711;1254;60505;-74
2024/03/16 10:36:52;;;;;;;72.30;37.70;;;;;;;8.82;100.00;101391.54;108735;1254;60213;-74
2024/03/16 10:39:22;;;;;;;72.80;35.60;;;;;;;8.83;100.00;101389.92;106511;1253;74003;-74
2024/03/16 10:41:50;;;;;;;74.40;34.30;;;;;;;8.89;100.00;101390.22;105597;1255;62916;-76
2024/03/16 10:44:17;;;;;;;69.90;36.00;;;;;;;8.94;100.00;101388.11;105857;1256;73821;-75
2024/03/16 10:46:44;;;;;;;74.70;36.80;;;;;;;8.97;100.00;101386.92;105438;1257;62933;-77
2024/03/16 10:49:11;;;;;;;68.70;34.40;;;;;;;9.01;100.00;101384.50;105467;1260;60470;-78
2024/03/16 10:51:44;;;;;;;70.60;35.30;;;;;;;9.06;100.00;101379.93;105621;1254;72399;-77
2024/03/16 10:54:11;;;;;;;70.40;35.70;;;;;;;9.08;100.00;101375.98;105589;1255;62695;-77
2024/03/16 10:56:39;;;;;;;67.90;32.80;;;;;;;9.14;100.00;101379.94;105648;1257;70880;-77
2024/03/16 10:59:07;;;;;;;69.50;36.70;;;;;;;9.14;100.00;101378.38;105480;1260;62758;-75
2024/03/16 11:01:38;;;;;;;64.80;33.10;;;;;;;9.09;100.00;101374.39;105637;1259;61127;-76